Time;durP1;ratioP1;P1;durP2;ratioP2;P2;SDS_P1;SDS_P2;PMS_P1;PMS_P2;Temp;Humidity;BMP_temperature;BMP_pressure;BME280_temperature;BME280_humidity;BME280_pressure;Samples;Min_cycle;Max_cycle;Signal;HPM_P1;HPM_P2
2021/07/03 00:01:26;;;;;;;8.60;5.13;;;15.70;99.90;;;;;;4448851;28;656087;-71
2021/07/03 00:04:13;;;;;;;6.33;4.47;;;15.60;99.90;;;;;;4429213;28;655594;-70
2021/07/03 00:07:02;;;;;;;7.53;4.90;;;15.60;99.90;;;;;;4448142;28;656240;-70
2021/07/03 00:09:49;;;;;;;7.23;4.80;;;15.60;99.90;;;;;;4417456;28;656180;-70
2021/07/03 00:12:37;;;;;;;6.37;4.83;;;15.60;99.90;;;;;;4451024;28;654897;-70
2021/07/03 00:15:26;;;;;;;8.60;5.17;;;15.60;99.90;;;;;;4429350;28;656381;-70
2021/07/03 00:18:13;;;;;;;8.83;4.80;;;15.60;99.90;;;;;;4424452;28;655377;-70
2021/07/03 00:21:01;;;;;;;8.60;4.90;;;15.60;99.90;;;;;;4446766;28;656142;-70
2021/07/03 00:23:50;;;;;;;10.40;5.70;;;15.60;99.90;;;;;;4428188;28;656071;-70
2021/07/03 00:26:38;;;;;;;10.50;5.60;;;15.60;99.90;;;;;;4431930;28;656633;-69
2021/07/03 00:29:25;;;;;;;8.17;5.53;;;15.60;99.90;;;;;;4439757;28;657899;-69
2021/07/03 00:32:13;;;;;;;8.03;5.47;;;15.70;99.90;;;;;;4433897;28;655187;-70
2021/07/03 00:35:00;;;;;;;8.67;5.93;;;15.70;99.90;;;;;;4437239;28;656793;-70
2021/07/03 00:37:48;;;;;;;10.47;5.90;;;15.70;99.90;;;;;;4418615;28;655337;-70
2021/07/03 00:40:37;;;;;;;9.77;6.17;;;15.60;99.90;;;;;;4440460;28;656565;-71
2021/07/03 00:43:24;;;;;;;10.33;7.10;;;15.70;99.90;;;;;;4421394;28;656389;-71
2021/07/03 00:46:12;;;;;;;12.80;7.27;;;15.70;99.90;;;;;;4447765;28;656214;-71
2021/07/03 00:49:00;;;;;;;13.00;7.38;;;15.70;99.90;;;;;;4410867;28;657128;-71
2021/07/03 00:51:48;;;;;;;15.67;7.87;;;15.70;99.90;;;;;;4440227;28;656544;-69
2021/07/03 00:54:36;;;;;;;13.30;8.10;;;15.70;99.90;;;;;;4431110;28;657932;-70
2021/07/03 00:57:25;;;;;;;10.93;7.53;;;15.70;99.90;;;;;;4428384;28;656481;-69
2021/07/03 01:00:14;;;;;;;14.93;7.87;;;15.70;99.90;;;;;;4448725;28;656448;-69
2021/07/03 01:03:01;;;;;;;16.20;7.43;;;15.70;99.90;;;;;;4445697;28;657483;-70
2021/07/03 01:05:49;;;;;;;11.53;7.67;;;15.70;99.90;;;;;;4429918;28;656499;-69
2021/07/03 01:08:37;;;;;;;11.93;8.20;;;15.70;99.90;;;;;;4450752;28;656883;-70
2021/07/03 01:11:26;;;;;;;11.10;7.70;;;15.60;99.90;;;;;;4419048;28;657700;-69
2021/07/03 01:14:15;;;;;;;12.00;7.93;;;15.60;99.90;;;;;;4423060;28;657163;-70
2021/07/03 01:17:04;;;;;;;12.43;8.13;;;15.60;99.90;;;;;;4441139;28;657064;-69
2021/07/03 01:19:51;;;;;;;17.17;8.50;;;15.60;99.90;;;;;;4441640;28;656798;-71
2021/07/03 01:22:40;;;;;;;13.00;8.10;;;15.50;99.90;;;;;;4431264;28;656388;-70
2021/07/03 01:25:28;;;;;;;12.63;8.00;;;15.50;99.90;;;;;;4430777;28;656574;-70
2021/07/03 01:28:16;;;;;;;12.97;8.37;;;15.50;99.90;;;;;;4452790;28;657177;-70
2021/07/03 01:31:03;;;;;;;12.40;8.57;;;15.50;99.90;;;;;;4423881;28;656574;-69
2021/07/03 01:33:51;;;;;;;16.57;8.87;;;15.50;99.90;;;;;;4446773;28;657160;-70
2021/07/03 01:36:38;;;;;;;13.63;8.93;;;15.50;99.90;;;;;;4428481;28;657748;-70
2021/07/03 01:39:28;;;;;;;16.90;9.63;;;15.50;99.90;;;;;;4437825;28;657656;-70
2021/07/03 01:42:16;;;;;;;14.17;9.40;;;15.50;99.90;;;;;;4409127;28;656628;-70
2021/07/03 01:45:03;;;;;;;14.97;9.67;;;15.50;99.90;;;;;;4415927;28;656610;-69
2021/07/03 01:47:51;;;;;;;17.37;10.27;;;15.50;99.90;;;;;;4444215;28;658650;-70
2021/07/03 01:50:38;;;;;;;17.67;10.83;;;15.50;99.90;;;;;;4408615;28;657520;-70
2021/07/03 01:53:26;;;;;;;16.30;10.83;;;15.50;99.90;;;;;;4441676;28;658752;-70
2021/07/03 01:56:15;;;;;;;18.50;11.10;;;15.50;99.90;;;;;;4404020;28;657661;-69
2021/07/03 01:59:03;;;;;;;24.40;12.17;;;15.50;99.90;;;;;;4403968;28;657745;-70
2021/07/03 02:01:50;;;;;;;18.77;11.27;;;15.50;99.90;;;;;;4430180;28;658578;-70
2021/07/03 02:04:38;;;;;;;22.30;13.23;;;15.50;99.90;;;;;;4402959;28;657559;-69
2021/07/03 02:07:25;;;;;;;24.73;14.17;;;15.40;99.90;;;;;;4431567;28;657418;-70
2021/07/03 02:10:13;;;;;;;24.53;13.90;;;15.40;99.90;;;;;;4405996;28;657798;-70
2021/07/03 02:13:02;;;;;;;26.23;15.27;;;15.40;99.90;;;;;;4432895;28;657870;-69
2021/07/03 02:15:49;;;;;;;24.67;15.93;;;15.40;99.90;;;;;;4407630;28;659133;-70
2021/07/03 02:18:37;;;;;;;24.20;14.77;;;15.30;99.90;;;;;;4430328;28;657587;-70
2021/07/03 02:21:25;;;;;;;27.77;14.90;;;15.40;99.90;;;;;;4407038;28;658213;-69
2021/07/03 02:24:13;;;;;;;28.48;15.57;;;15.40;99.90;;;;;;4411618;28;657241;-70
2021/07/03 02:27:01;;;;;;;27.10;15.83;;;15.40;99.90;;;;;;4429743;28;658290;-70
2021/07/03 02:29:50;;;;;;;26.73;15.80;;;15.30;99.90;;;;;;4413350;28;657842;-69
2021/07/03 02:32:37;;;;;;;30.10;15.33;;;15.40;99.90;;;;;;4421960;28;658342;-70
2021/07/03 02:35:25;;;;;;;32.90;15.60;;;15.40;99.90;;;;;;4419196;28;658863;-69
2021/07/03 02:38:13;;;;;;;30.57;15.70;;;15.40;99.90;;;;;;4435082;28;657401;-70
2021/07/03 02:41:00;;;;;;;27.43;15.30;;;15.30;99.90;;;;;;4448094;28;658698;-70
2021/07/03 02:43:48;;;;;;;26.83;16.23;;;15.40;99.90;;;;;;4428350;28;658047;-69
2021/07/03 02:46:37;;;;;;;34.13;17.03;;;15.40;99.90;;;;;;4449801;28;657458;-70
2021/07/03 02:49:25;;;;;;;31.90;16.73;;;15.40;99.90;;;;;;4424412;28;658340;-70
2021/07/03 02:52:13;;;;;;;31.07;16.83;;;15.40;99.90;;;;;;4428987;28;657546;-70
2021/07/03 02:55:00;;;;;;;29.63;17.07;;;15.40;99.90;;;;;;4447389;28;658920;-69
2021/07/03 02:57:48;;;;;;;29.37;17.17;;;15.40;99.90;;;;;;4429105;28;657489;-69
2021/07/03 03:00:35;;;;;;;32.70;18.83;;;15.40;99.90;;;;;;4444942;28;658071;-70
2021/07/03 03:03:24;;;;;;;29.10;17.10;;;15.40;99.90;;;;;;4426133;28;657499;-69
2021/07/03 03:06:14;;;;;;;27.00;16.67;;;15.40;99.90;;;;;;4446966;28;657584;-69
2021/07/03 03:09:02;;;;;;;28.77;15.63;;;15.40;99.90;;;;;;4423634;28;657648;-70
2021/07/03 03:11:49;;;;;;;29.53;17.37;;;15.40;99.90;;;;;;4421450;28;657199;-69
2021/07/03 03:14:36;;;;;;;27.30;17.17;;;15.50;99.90;;;;;;4446829;28;657549;-70
2021/07/03 03:17:24;;;;;;;29.13;17.97;;;15.50;99.90;;;;;;4428134;28;657271;-70
2021/07/03 03:20:13;;;;;;;37.37;17.93;;;15.50;99.90;;;;;;4449689;28;657591;-70
2021/07/03 03:23:01;;;;;;;28.47;18.40;;;15.50;99.90;;;;;;4415493;28;658079;-70
2021/07/03 03:25:49;;;;;;;33.60;17.90;;;15.50;99.90;;;;;;4422826;28;657901;-69
2021/07/03 03:28:36;;;;;;;31.30;18.53;;;15.50;99.90;;;;;;4438965;28;658034;-69
2021/07/03 03:31:24;;;;;;;28.10;17.50;;;15.50;99.90;;;;;;4426926;28;658080;-69
2021/07/03 03:34:11;;;;;;;32.17;17.97;;;15.50;99.90;;;;;;4450931;28;657408;-69
2021/07/03 03:37:00;;;;;;;27.50;17.33;;;15.60;99.90;;;;;;4428476;28;657460;-69
2021/07/03 03:39:48;;;;;;;25.43;15.77;;;15.60;99.90;;;;;;4420435;28;657623;-70
2021/07/03 03:42:35;;;;;;;29.90;17.00;;;15.60;99.90;;;;;;4445511;28;658944;-70
2021/07/03 03:45:23;;;;;;;30.83;17.30;;;15.60;99.90;;;;;;4420115;28;658059;-70
2021/07/03 03:48:12;;;;;;;24.77;15.37;;;15.70;99.90;;;;;;4449816;28;658000;-70
2021/07/03 03:50:59;;;;;;;26.53;16.77;;;15.70;99.90;;;;;;4427494;28;658031;-69
2021/07/03 03:53:48;;;;;;;28.40;15.70;;;15.70;99.90;;;;;;4440662;28;657803;-70
2021/07/03 03:56:36;;;;;;;22.97;15.53;;;15.80;99.90;;;;;;4423751;28;658221;-69
2021/07/03 03:59:24;;;;;;;31.20;18.70;;;15.80;99.90;;;;;;4427825;28;657574;-69
2021/07/03 04:02:11;;;;;;;27.73;17.13;;;15.90;99.90;;;;;;4446186;28;658115;-70
2021/07/03 04:04:59;;;;;;;30.47;17.50;;;15.90;99.90;;;;;;4419327;28;658608;-70
2021/07/03 04:07:47;;;;;;;29.63;18.53;;;15.90;99.90;;;;;;4446301;28;658016;-70
2021/07/03 04:10:36;;;;;;;30.90;16.83;;;15.90;99.90;;;;;;4418826;28;657596;-70
2021/07/03 04:13:23;;;;;;;26.23;16.93;;;15.90;99.90;;;;;;4426859;28;657596;-70
2021/07/03 04:16:11;;;;;;;29.43;17.30;;;15.90;99.90;;;;;;4450930;28;658741;-69
2021/07/03 04:18:58;;;;;;;28.43;17.03;;;16.00;99.90;;;;;;4427491;28;657632;-69
2021/07/03 04:21:46;;;;;;;28.93;17.83;;;16.10;99.90;;;;;;4445098;28;658330;-70
2021/07/03 04:24:33;;;;;;;29.23;17.07;;;16.10;99.90;;;;;;4427726;28;657630;-70
2021/07/03 04:27:22;;;;;;;24.40;15.80;;;16.10;99.90;;;;;;4446241;28;659189;-69
2021/07/03 04:30:11;;;;;;;20.88;14.63;;;16.20;99.90;;;;;;4419642;28;658645;-69
2021/07/03 04:32:58;;;;;;;21.83;14.80;;;16.30;99.90;;;;;;4422843;28;657725;-69
2021/07/03 04:35:46;;;;;;;20.20;14.30;;;16.30;99.90;;;;;;4430058;28;659232;-70
2021/07/03 04:38:33;;;;;;;31.50;13.93;;;16.40;99.90;;;;;;4424812;28;658862;-69
2021/07/03 04:41:21;;;;;;;19.33;12.67;;;16.40;99.90;;;;;;4445728;28;657627;-70
2021/07/03 04:44:11;;;;;;;24.13;13.17;;;16.40;99.90;;;;;;4427008;28;658109;-70
2021/07/03 04:46:58;;;;;;;18.67;12.07;;;16.50;99.90;;;;;;4419719;28;657668;-69
2021/07/03 04:49:46;;;;;;;21.93;12.47;;;16.40;99.90;;;;;;4445989;28;657771;-70
2021/07/03 04:52:33;;;;;;;20.03;12.13;;;16.40;99.90;;;;;;4420364;28;657293;-70
2021/07/03 04:55:21;;;;;;;25.63;16.60;;;16.40;99.90;;;;;;4446691;28;658432;-69
2021/07/03 04:58:09;;;;;;;25.17;17.30;;;16.40;99.90;;;;;;4427350;28;657822;-69
2021/07/03 05:00:58;;;;;;;29.47;17.10;;;16.50;99.90;;;;;;4452756;28;657247;-70
2021/07/03 05:03:45;;;;;;;27.40;18.23;;;16.50;99.90;;;;;;4423076;28;658761;-69
2021/07/03 05:06:33;;;;;;;29.63;15.75;;;16.50;99.90;;;;;;4430218;28;658344;-70
2021/07/03 05:09:21;;;;;;;26.50;16.00;;;16.50;99.90;;;;;;4452419;28;658361;-70
2021/07/03 05:12:08;;;;;;;20.37;13.20;;;16.70;99.90;;;;;;4424044;28;657951;-70
2021/07/03 05:14:56;;;;;;;26.13;16.17;;;16.80;99.90;;;;;;4449257;28;658601;-70
2021/07/03 05:17:45;;;;;;;23.93;15.50;;;17.00;99.90;;;;;;4430014;28;657640;-69
2021/07/03 05:20:33;;;;;;;26.17;16.07;;;17.10;99.90;;;;;;4434446;28;657842;-70
2021/07/03 05:23:21;;;;;;;21.03;13.43;;;17.20;99.90;;;;;;4434324;28;658683;-71
2021/07/03 05:26:08;;;;;;;26.63;15.97;;;17.30;99.90;;;;;;4430229;28;657375;-70
2021/07/03 05:28:56;;;;;;;23.17;14.50;;;17.40;99.90;;;;;;4441109;28;658420;-70
2021/07/03 05:31:44;;;;;;;20.87;13.77;;;17.50;99.90;;;;;;4430077;28;658062;-69
2021/07/03 05:34:33;;;;;;;22.50;14.57;;;17.60;99.90;;;;;;4448965;28;657756;-69
2021/07/03 05:37:20;;;;;;;21.33;13.20;;;17.60;99.90;;;;;;4425690;28;658351;-71
2021/07/03 05:40:11;;;;;;;26.67;14.50;;;17.70;99.90;;;;;;4420498;28;657629;-71
2021/07/03 05:42:59;;;;;;;24.30;13.70;;;17.60;99.90;;;;;;4418202;28;657972;-70
2021/07/03 05:45:47;;;;;;;26.33;11.57;;;17.50;99.90;;;;;;4439755;28;657167;-71
2021/07/03 05:48:35;;;;;;;24.10;14.50;;;17.40;99.90;;;;;;4425432;28;657699;-69
2021/07/03 05:51:27;;;;;;;19.17;12.60;;;17.20;99.90;;;;;;4443156;28;658179;-69
2021/07/03 05:54:14;;;;;;;21.70;10.57;;;17.30;99.90;;;;;;4429819;28;658348;-71
2021/07/03 05:57:02;;;;;;;16.13;9.60;;;17.20;99.90;;;;;;4448928;28;657516;-69
2021/07/03 05:59:54;;;;;;;18.53;9.23;;;17.30;99.90;;;;;;4427161;28;656602;-69
2021/07/03 06:02:41;;;;;;;14.47;8.40;;;17.40;99.90;;;;;;4430705;28;656659;-71
2021/07/03 06:05:29;;;;;;;14.77;8.30;;;17.50;99.90;;;;;;4430617;28;657187;-71
2021/07/03 06:08:18;;;;;;;11.40;7.97;;;17.60;99.90;;;;;;4449674;28;656647;-70
2021/07/03 06:11:06;;;;;;;12.53;7.53;;;17.80;99.90;;;;;;4424111;28;656948;-69
2021/07/03 06:13:55;;;;;;;9.53;7.43;;;17.90;99.90;;;;;;4428637;28;656822;-70
2021/07/03 06:16:43;;;;;;;13.37;7.53;;;18.00;99.90;;;;;;4432572;28;656065;-70
2021/07/03 06:19:30;;;;;;;10.27;7.37;;;18.10;99.90;;;;;;4441682;28;656606;-71
2021/07/03 06:22:18;;;;;;;18.87;7.33;;;18.30;99.90;;;;;;4430067;28;656477;-71
2021/07/03 06:25:08;;;;;;;12.83;7.53;;;18.40;99.90;;;;;;4453516;28;657608;-72
2021/07/03 06:27:55;;;;;;;12.93;8.00;;;18.50;99.90;;;;;;4425801;28;656613;-70
2021/07/03 06:30:43;;;;;;;13.30;7.87;;;18.40;99.90;;;;;;4429171;28;657062;-69
2021/07/03 06:33:30;;;;;;;16.53;7.30;;;18.50;99.90;;;;;;4447327;28;657217;-70
2021/07/03 06:36:19;;;;;;;13.23;7.37;;;18.60;99.90;;;;;;4429310;28;656522;-70
2021/07/03 06:39:36;;;;;;;10.83;6.50;;;18.70;99.90;;;;;;4437930;28;657091;-71
2021/07/03 06:42:25;;;;;;;14.30;7.40;;;18.70;99.90;;;;;;4386476;28;656273;-70
2021/07/03 06:45:13;;;;;;;11.13;6.70;;;18.40;99.90;;;;;;4409658;28;656537;-69
2021/07/03 06:48:00;;;;;;;10.07;6.83;;;18.20;99.90;;;;;;4420806;28;657918;-69
2021/07/03 06:50:48;;;;;;;12.73;6.80;;;18.20;99.90;;;;;;4402474;28;657393;-69
2021/07/03 06:53:36;;;;;;;12.43;7.10;;;18.50;99.90;;;;;;4417381;28;658535;-70
2021/07/03 06:56:23;;;;;;;10.63;6.63;;;18.80;99.90;;;;;;4393711;28;658362;-70
2021/07/03 06:59:12;;;;;;;16.03;7.30;;;19.00;99.90;;;;;;4423086;28;657693;-70
2021/07/03 07:02:00;;;;;;;12.27;6.17;;;18.90;99.90;;;;;;4404979;28;658022;-72
2021/07/03 07:04:51;;;;;;;12.37;6.60;;;18.70;99.90;;;;;;4415573;28;657771;-70
2021/07/03 07:07:39;;;;;;;11.07;6.10;;;18.80;99.90;;;;;;4398403;28;658215;-71
2021/07/03 07:10:27;;;;;;;9.80;6.27;;;18.80;99.90;;;;;;4420209;28;657917;-71
2021/07/03 07:13:14;;;;;;;9.90;6.43;;;18.70;99.90;;;;;;4408744;28;657562;-70
2021/07/03 07:16:04;;;;;;;11.70;6.00;;;18.60;99.90;;;;;;4421373;28;656353;-71
2021/07/03 07:18:52;;;;;;;11.87;5.63;;;18.70;99.90;;;;;;4377094;28;658023;-72
2021/07/03 07:21:39;;;;;;;8.93;5.90;;;18.70;99.90;;;;;;4376681;28;658341;-72
2021/07/03 07:24:27;;;;;;;7.73;5.50;;;18.90;99.90;;;;;;4416264;28;656568;-70
2021/07/03 07:27:14;;;;;;;12.20;6.23;;;19.10;99.90;;;;;;4387968;28;656897;-70
2021/07/03 07:30:02;;;;;;;10.50;6.40;;;19.50;99.90;;;;;;4427434;28;657371;-72
2021/07/03 07:32:52;;;;;;;13.33;7.17;;;19.40;99.90;;;;;;4397677;28;658478;-71
2021/07/03 07:35:39;;;;;;;10.97;6.33;;;19.40;99.90;;;;;;4398400;28;657992;-70
2021/07/03 07:38:28;;;;;;;15.00;7.00;;;19.40;99.90;;;;;;4429873;28;657773;-71
2021/07/03 07:41:16;;;;;;;12.87;6.43;;;19.40;99.90;;;;;;4406330;28;657950;-71
2021/07/03 07:44:19;;;;;;;9.50;6.07;;;19.50;99.90;;;;;;4383186;28;658237;-71
2021/07/03 07:47:06;;;;;;;10.83;5.50;;;19.50;99.90;;;;;;4420786;28;657500;-72
2021/07/03 07:49:56;;;;;;;10.57;6.07;;;19.80;99.90;;;;;;4405696;28;657545;-70
2021/07/03 07:52:44;;;;;;;10.40;6.43;;;19.90;99.90;;;;;;4408380;28;657572;-72
2021/07/03 07:55:32;;;;;;;8.63;5.93;;;19.60;99.90;;;;;;4427491;28;657199;-72
2021/07/03 07:58:19;;;;;;;10.30;6.60;;;19.50;99.90;;;;;;4410605;28;658259;-70
2021/07/03 08:01:07;;;;;;;11.30;7.03;;;19.40;99.90;;;;;;4427700;28;657749;-70
2021/07/03 08:03:54;;;;;;;9.93;6.73;;;19.10;99.90;;;;;;4405288;28;658396;-70
2021/07/03 08:06:44;;;;;;;11.00;7.07;;;18.90;99.90;;;;;;4429222;28;657388;-71
2021/07/03 08:09:31;;;;;;;12.60;7.00;;;19.00;99.90;;;;;;4404944;28;658418;-70
2021/07/03 08:12:19;;;;;;;10.47;6.43;;;19.20;99.90;;;;;;4409275;28;657351;-71
2021/07/03 08:15:07;;;;;;;10.07;6.83;;;19.20;99.90;;;;;;4427790;28;658386;-70
2021/07/03 08:17:55;;;;;;;10.77;6.60;;;19.20;99.90;;;;;;4394619;28;657986;-71
2021/07/03 08:20:43;;;;;;;11.37;6.77;;;19.10;99.90;;;;;;4406609;28;657936;-70
2021/07/03 08:23:32;;;;;;;16.27;7.37;;;19.10;99.90;;;;;;4427875;28;658436;-70
2021/07/03 08:26:19;;;;;;;13.30;7.43;;;18.90;99.90;;;;;;4409708;28;657609;-71
2021/07/03 08:29:07;;;;;;;17.43;8.60;;;18.90;99.90;;;;;;4428644;28;657662;-70
2021/07/03 08:31:54;;;;;;;9.93;7.17;;;18.80;99.90;;;;;;4408408;28;657875;-70
2021/07/03 08:34:42;;;;;;;15.27;7.80;;;18.80;99.90;;;;;;4416316;28;656550;-70
2021/07/03 08:37:29;;;;;;;12.30;7.30;;;18.90;99.90;;;;;;4403433;28;657896;-71
2021/07/03 08:40:19;;;;;;;15.60;7.20;;;19.20;99.90;;;;;;4437198;28;657703;-72
2021/07/03 08:43:06;;;;;;;11.97;7.03;;;19.80;99.90;;;;;;4417029;28;658644;-71
2021/07/03 08:45:57;;;;;;;10.93;7.23;;;20.20;99.90;;;;;;4421387;28;657517;-70
2021/07/03 08:48:45;;;;;;;17.10;6.70;;;20.40;99.90;;;;;;4414923;28;657767;-71
2021/07/03 08:51:33;;;;;;;14.32;7.55;;;20.50;99.90;;;;;;4420241;28;657742;-69
2021/07/03 08:54:20;;;;;;;14.40;7.57;;;20.50;99.90;;;;;;4446518;28;658673;-69
2021/07/03 08:57:11;;;;;;;22.67;7.83;;;20.10;99.90;;;;;;4405946;28;657474;-71
2021/07/03 08:59:59;;;;;;;10.77;7.40;;;20.00;99.90;;;;;;4413960;28;657808;-71
2021/07/03 09:02:47;;;;;;;11.87;7.37;;;19.80;99.90;;;;;;4447441;28;658490;-72
2021/07/03 09:05:37;;;;;;;12.77;7.53;;;20.00;99.90;;;;;;4409167;28;658314;-72
2021/07/03 09:08:33;;;;;;;13.03;8.17;;;20.20;99.90;;;;;;4408512;28;658766;-71
2021/07/03 09:11:21;;;;;;;12.43;7.63;;;20.50;99.90;;;;;;4417263;28;658182;-72
2021/07/03 09:14:10;;;;;;;12.80;7.40;;;20.70;99.90;;;;;;4409476;28;657669;-70
2021/07/03 09:16:59;;;;;;;17.10;6.83;;;21.20;99.90;;;;;;4409292;28;657447;-70
2021/07/03 09:19:51;;;;;;;10.47;5.73;;;21.40;99.90;;;;;;4431485;28;657134;-71
2021/07/03 09:22:38;;;;;;;13.30;6.03;;;21.80;99.90;;;;;;4393525;28;658065;-69
2021/07/03 09:25:27;;;;;;;8.33;6.30;;;21.90;99.90;;;;;;4436104;28;658450;-70
2021/07/03 09:28:16;;;;;;;10.37;6.03;;;21.60;99.90;;;;;;4410660;28;656913;-72
2021/07/03 09:31:05;;;;;;;10.73;6.37;;;21.60;99.90;;;;;;4421561;28;657678;-72
2021/07/03 09:33:53;;;;;;;7.70;5.00;;;21.30;99.90;;;;;;4434064;28;657594;-70
2021/07/03 09:36:41;;;;;;;9.87;6.50;;;21.50;99.90;;;;;;4432292;28;657304;-73
2021/07/03 09:39:29;;;;;;;12.20;6.00;;;21.40;99.90;;;;;;4420102;28;656298;-71
2021/07/03 09:42:17;;;;;;;14.23;7.13;;;21.70;99.90;;;;;;4439189;28;657472;-73
2021/07/03 09:45:05;;;;;;;14.77;7.20;;;22.10;99.90;;;;;;4402099;28;658116;-71
2021/07/03 09:48:02;;;;;;;15.13;7.33;;;21.90;99.90;;;;;;4422509;28;657603;-68
2021/07/03 09:50:50;;;;;;;31.23;11.50;;;22.00;99.90;;;;;;4422246;28;657679;-71
2021/07/03 09:53:38;;;;;;;11.60;6.53;;;21.90;99.90;;;;;;4434500;28;659009;-68
2021/07/03 09:56:25;;;;;;;21.10;8.27;;;21.40;99.90;;;;;;4426197;28;658151;-71
2021/07/03 09:59:13;;;;;;;17.07;8.03;;;21.00;99.90;;;;;;4424449;28;658765;-72
2021/07/03 10:02:01;;;;;;;15.50;7.47;;;20.80;99.90;;;;;;4449330;28;658161;-73
2021/07/03 10:04:50;;;;;;;15.70;7.67;;;20.90;99.90;;;;;;4419799;28;658097;-71
2021/07/03 10:07:39;;;;;;;17.10;7.30;;;21.30;99.90;;;;;;4431839;28;658100;-69
2021/07/03 10:10:28;;;;;;;15.40;7.63;;;21.80;99.90;;;;;;4441847;28;657556;-72
2021/07/03 10:13:17;;;;;;;10.17;7.10;;;22.60;99.90;;;;;;4424531;28;657857;-70
2021/07/03 10:16:06;;;;;;;11.33;7.53;;;22.10;99.90;;;;;;4418254;28;658587;-72
2021/07/03 10:19:06;;;;;;;13.50;7.43;;;22.30;99.90;;;;;;4428542;28;657367;-73
2021/07/03 10:21:55;;;;;;;13.73;6.77;;;22.10;99.90;;;;;;4402586;28;658345;-72
2021/07/03 10:24:44;;;;;;;11.63;7.27;;;22.00;99.90;;;;;;4439061;28;657391;-71
2021/07/03 10:27:32;;;;;;;10.90;7.40;;;21.50;99.90;;;;;;4448681;28;657346;-72
2021/07/03 10:30:23;;;;;;;14.20;8.20;;;21.20;99.90;;;;;;4417838;28;657822;-71
2021/07/03 10:33:13;;;;;;;13.40;7.23;;;21.10;99.90;;;;;;4417357;28;658010;-72
2021/07/03 10:36:02;;;;;;;11.03;7.93;;;21.10;99.90;;;;;;4421077;28;658719;-73
2021/07/03 10:38:51;;;;;;;10.50;6.93;;;21.10;99.90;;;;;;4417107;28;658411;-69
2021/07/03 10:41:40;;;;;;;14.40;7.77;;;21.10;99.90;;;;;;4416110;28;657897;-73
2021/07/03 10:44:36;;;;;;;12.33;7.40;;;21.00;99.90;;;;;;4429850;28;658201;-70
2021/07/03 10:47:33;;;;;;;15.00;7.27;;;21.40;99.90;;;;;;4385585;28;657906;-73
2021/07/03 10:50:22;;;;;;;14.40;7.57;;;21.70;99.90;;;;;;4395580;28;658627;-72
2021/07/03 10:53:20;;;;;;;11.73;7.30;;;21.60;99.90;;;;;;4424670;28;658289;-73
2021/07/03 10:56:13;;;;;;;12.30;6.83;;;21.40;99.90;;;;;;4423051;28;658334;-72
2021/07/03 10:59:00;;;;;;;11.43;7.05;;;21.20;99.90;;;;;;4396406;28;658215;-72
2021/07/03 11:01:48;;;;;;;14.43;7.07;;;21.10;99.90;;;;;;4427970;28;657564;-70
2021/07/03 11:04:46;;;;;;;11.37;7.07;;;20.90;99.90;;;;;;4437933;28;658356;-73
2021/07/03 11:07:34;;;;;;;18.03;7.10;;;20.90;99.90;;;;;;4422819;28;657306;-71
2021/07/03 11:10:27;;;;;;;13.17;6.63;;;20.90;99.90;;;;;;4436099;28;657327;-72
2021/07/03 11:13:23;;;;;;;10.03;6.63;;;21.20;99.90;;;;;;4397145;28;657713;-72
2021/07/03 11:16:11;;;;;;;12.13;6.33;;;21.70;99.90;;;;;;4414726;28;658111;-70
2021/07/03 11:18:59;;;;;;;12.80;6.50;;;22.00;99.90;;;;;;4413342;28;657970;-73
2021/07/03 11:21:47;;;;;;;12.13;6.50;;;22.20;99.90;;;;;;4431748;28;657367;-70
2021/07/03 11:24:45;;;;;;;8.50;6.27;;;22.10;99.90;;;;;;4416792;28;658830;-73
2021/07/03 11:27:34;;;;;;;11.77;6.57;;;21.60;99.90;;;;;;4392958;28;656567;-73
2021/07/03 11:30:23;;;;;;;10.47;6.43;;;21.20;99.90;;;;;;4431402;28;657306;-72
2021/07/03 11:33:11;;;;;;;14.83;6.50;;;21.00;99.90;;;;;;4423842;28;658153;-72
2021/07/03 11:35:59;;;;;;;7.83;5.87;;;20.90;99.90;;;;;;4428263;28;657908;-73
2021/07/03 11:38:54;;;;;;;13.93;7.30;;;20.60;99.90;;;;;;4447159;28;656338;-75
2021/07/03 11:41:43;;;;;;;14.27;7.07;;;20.40;99.90;;;;;;4423927;28;657826;-74
2021/07/03 11:44:31;;;;;;;12.90;7.67;;;20.30;99.90;;;;;;4424402;28;658035;-75
2021/07/03 11:47:20;;;;;;;12.03;8.07;;;20.00;99.90;;;;;;4428856;28;657633;-73
2021/07/03 11:50:09;;;;;;;16.80;8.07;;;19.70;99.90;;;;;;4429261;28;657372;-72
2021/07/03 11:52:58;;;;;;;15.13;8.07;;;19.40;99.90;;;;;;4432859;28;658098;-73
2021/07/03 11:55:46;;;;;;;14.10;9.17;;;19.30;99.90;;;;;;4420004;28;658155;-74
2021/07/03 11:58:34;;;;;;;11.13;7.80;;;19.10;99.90;;;;;;4412008;28;657975;-73
2021/07/03 12:01:22;;;;;;;11.93;8.60;;;19.00;99.90;;;;;;4440116;28;658352;-73
2021/07/03 12:04:11;;;;;;;13.97;8.20;;;19.00;99.90;;;;;;4417587;28;658399;-73
2021/07/03 12:07:02;;;;;;;15.00;7.87;;;19.10;99.90;;;;;;4422659;28;657892;-73
2021/07/03 12:09:50;;;;;;;12.87;7.87;;;19.10;99.90;;;;;;4427783;28;657869;-73
2021/07/03 12:12:38;;;;;;;13.27;7.63;;;19.20;99.90;;;;;;4445208;28;657919;-69
2021/07/03 12:15:40;;;;;;;13.60;7.77;;;19.30;99.90;;;;;;4443679;28;658356;-72
2021/07/03 12:18:28;;;;;;;11.40;7.53;;;19.40;99.90;;;;;;4407956;28;657521;-70
2021/07/03 12:21:18;;;;;;;17.07;8.57;;;19.50;99.90;;;;;;4454788;28;658537;-72
2021/07/03 12:24:06;;;;;;;11.57;7.40;;;19.60;99.90;;;;;;4423139;28;658531;-72
2021/07/03 12:26:54;;;;;;;14.15;7.78;;;19.80;99.90;;;;;;4425732;28;657194;-72
2021/07/03 12:29:41;;;;;;;15.00;7.93;;;19.90;99.90;;;;;;4439226;28;658443;-73
2021/07/03 12:32:29;;;;;;;11.13;7.73;;;20.00;99.90;;;;;;4423070;28;657485;-72
2021/07/03 12:35:17;;;;;;;13.77;7.50;;;20.30;99.90;;;;;;4445213;28;657821;-72
2021/07/03 12:38:07;;;;;;;10.60;7.47;;;20.60;99.90;;;;;;4416882;28;657559;-72
2021/07/03 12:40:55;;;;;;;14.20;7.70;;;20.70;99.90;;;;;;4412205;28;658760;-73
2021/07/03 12:43:43;;;;;;;13.80;7.40;;;20.80;99.90;;;;;;4414421;28;657558;-69
2021/07/03 12:46:31;;;;;;;11.67;8.00;;;20.90;99.90;;;;;;4422268;28;657959;-72
2021/07/03 12:49:18;;;;;;;14.60;7.83;;;21.10;99.90;;;;;;4417395;28;658141;-71
2021/07/03 12:52:07;;;;;;;11.10;7.27;;;21.50;99.90;;;;;;4431360;28;658593;-71
2021/07/03 12:54:57;;;;;;;10.70;7.60;;;21.70;99.90;;;;;;4408936;28;658558;-73
2021/07/03 12:57:46;;;;;;;10.87;6.90;;;21.70;99.90;;;;;;4409314;28;658987;-73
2021/07/03 13:00:45;;;;;;;13.27;7.47;;;21.60;99.90;;;;;;4413425;28;657700;-71
2021/07/03 13:03:32;;;;;;;16.63;7.47;;;21.30;99.90;;;;;;4414397;28;657399;-73
2021/07/03 13:06:25;;;;;;;15.07;7.97;;;21.30;99.90;;;;;;4413672;28;658391;-74
2021/07/03 13:09:13;;;;;;;14.70;8.27;;;21.00;99.90;;;;;;4434101;28;657444;-70
2021/07/03 13:12:02;;;;;;;13.87;7.77;;;20.80;99.90;;;;;;4430635;28;658844;-75
2021/07/03 13:14:50;;;;;;;11.23;8.07;;;20.70;99.90;;;;;;4412439;28;657989;-73
2021/07/03 13:17:37;;;;;;;12.53;7.97;;;20.60;99.90;;;;;;4420793;28;657160;-73
2021/07/03 13:20:25;;;;;;;14.97;7.70;;;20.60;99.90;;;;;;4397931;28;658235;-73
2021/07/03 13:23:13;;;;;;;10.67;7.33;;;20.60;99.90;;;;;;4419941;28;658228;-70
2021/07/03 13:26:00;;;;;;;14.87;7.83;;;20.60;99.90;;;;;;4431116;28;657864;-74
2021/07/03 13:28:49;;;;;;;10.70;7.13;;;20.70;99.90;;;;;;4424238;28;658030;-72
2021/07/03 13:31:37;;;;;;;11.67;7.23;;;20.80;99.90;;;;;;4431199;28;658129;-73
2021/07/03 13:34:25;;;;;;;16.23;7.33;;;20.80;99.90;;;;;;4408807;28;658733;-73
2021/07/03 13:37:12;;;;;;;10.67;7.00;;;20.80;99.90;;;;;;4433165;28;657003;-72
2021/07/03 13:40:00;;;;;;;12.57;6.80;;;20.90;99.90;;;;;;4428000;28;658423;-73
2021/07/03 13:42:48;;;;;;;9.87;6.73;;;20.90;99.90;;;;;;4430310;28;657713;-72
2021/07/03 13:45:37;;;;;;;13.20;7.30;;;20.80;99.90;;;;;;4451418;28;657616;-73
2021/07/03 13:48:24;;;;;;;12.00;7.00;;;20.90;99.90;;;;;;4411487;28;658176;-72
2021/07/03 13:51:12;;;;;;;15.93;7.67;;;20.80;99.90;;;;;;4448770;28;657650;-74
2021/07/03 13:54:00;;;;;;;9.00;7.00;;;20.80;99.90;;;;;;4424182;28;658779;-72
2021/07/03 13:56:47;;;;;;;12.67;7.43;;;20.70;99.90;;;;;;4449285;28;656254;-72
2021/07/03 13:59:35;;;;;;;20.03;7.63;;;20.70;99.90;;;;;;4406537;28;658169;-73
2021/07/03 14:02:24;;;;;;;13.33;7.00;;;20.70;99.90;;;;;;4437652;28;657821;-71
2021/07/03 14:05:12;;;;;;;14.63;7.73;;;20.60;99.90;;;;;;4442464;28;657643;-73
2021/07/03 14:08:00;;;;;;;12.33;7.13;;;20.50;99.90;;;;;;4421080;28;658015;-72
2021/07/03 14:10:48;;;;;;;12.50;7.17;;;20.40;99.90;;;;;;4438328;28;657584;-71
2021/07/03 14:13:36;;;;;;;11.87;7.80;;;20.40;99.90;;;;;;4432092;28;658815;-73